Time;durP1;ratioP1;P1;durP2;ratioP2;P2;SDS_P1;SDS_P2;PMS_P1;PMS_P2;Temp;Humidity;BMP_temperature;BMP_pressure;BME280_temperature;BME280_humidity;BME280_pressure;Samples;Min_cycle;Max_cycle;Signal;HPM_P1;HPM_P2
2022/12/02 05:00:34;;;;;;;10.23;4.63;;;1.90;99.90;;;;;;5903244;23;20931;-69
2022/12/02 05:03:01;;;;;;;10.10;6.28;;;1.90;99.90;;;;;;4930010;29;20221;-66
2022/12/02 05:05:27;;;;;;;16.70;8.75;;;1.90;99.90;;;;;;4935038;29;20213;-67
2022/12/02 05:07:54;;;;;;;10.13;6.65;;;1.90;99.90;;;;;;4934603;29;20205;-67
2022/12/02 05:10:21;;;;;;;8.00;7.22;;;1.90;99.90;;;;;;4934735;29;20222;-67
2022/12/02 05:12:47;;;;;;;9.07;7.95;;;1.90;99.90;;;;;;4933908;29;20202;-67
2022/12/02 05:17:45;;;;;;;6.70;6.05;;;1.90;99.90;;;;;;4991124;28;20281;-67
2022/12/02 05:20:13;;;;;;;7.25;5.60;;;1.90;99.90;;;;;;4993106;28;20204;-67
2022/12/02 05:22:40;;;;;;;12.18;9.55;;;1.90;99.90;;;;;;4986734;28;20311;-66
2022/12/02 05:25:07;;;;;;;20.30;7.68;;;1.90;99.90;;;;;;4984343;28;20209;-68
2022/12/02 05:27:34;;;;;;;7.03;5.57;;;1.90;99.90;;;;;;4972544;28;20224;-68
2022/12/02 05:30:01;;;;;;;7.35;5.13;;;1.90;99.90;;;;;;4973386;28;20306;-66
2022/12/02 05:32:27;;;;;;;13.60;6.07;;;1.90;99.90;;;;;;4966755;28;20618;-66
2022/12/02 05:34:55;;;;;;;6.60;5.10;;;1.90;99.90;;;;;;4961341;28;20205;-67
2022/12/02 05:37:22;;;;;;;9.55;8.18;;;1.90;99.90;;;;;;4966498;28;20240;-67
2022/12/02 05:39:49;;;;;;;20.90;9.55;;;1.90;99.90;;;;;;4961104;28;20216;-66
2022/12/02 05:42:15;;;;;;;22.48;9.15;;;1.90;99.90;;;;;;4967802;28;20224;-66
2022/12/02 05:44:42;;;;;;;17.73;6.22;;;1.90;99.90;;;;;;4953747;29;20260;-68
2022/12/02 05:47:12;;;;;;;9.48;6.35;;;1.90;99.90;;;;;;4969904;28;20220;-68
2022/12/02 05:49:39;;;;;;;20.95;7.80;;;1.90;99.90;;;;;;4972994;28;20228;-68
2022/12/02 05:52:22;;;;;;;8.50;6.80;;;2.00;99.90;;;;;;4965389;28;20311;-67
2022/12/02 05:54:51;;;;;;;6.97;6.40;;;2.00;99.90;;;;;;4968100;28;20243;-67
2022/12/02 05:57:22;;;;;;;16.85;9.93;;;1.90;99.90;;;;;;4972034;28;20222;-67
2022/12/02 05:59:48;;;;;;;10.13;5.53;;;1.90;99.90;;;;;;4972132;28;20300;-68
2022/12/02 06:02:23;;;;;;;14.75;7.85;;;1.90;99.90;;;;;;4972379;28;20251;-67
2022/12/02 06:04:50;;;;;;;14.55;8.45;;;1.90;99.90;;;;;;4970364;28;20290;-66
2022/12/02 06:07:18;;;;;;;8.70;6.30;;;1.90;99.90;;;;;;4969803;28;20241;-66
2022/12/02 06:09:45;;;;;;;9.95;7.05;;;1.90;99.90;;;;;;4971941;28;20220;-67
2022/12/02 06:12:17;;;;;;;18.15;9.13;;;1.90;99.90;;;;;;4957353;28;20213;-67
2022/12/02 06:14:51;;;;;;;12.05;5.00;;;2.00;99.90;;;;;;4964703;28;20338;-67
2022/12/02 06:17:18;;;;;;;11.38;6.18;;;1.90;99.90;;;;;;4952987;29;20241;-67
2022/12/02 06:19:50;;;;;;;12.10;5.63;;;2.00;99.90;;;;;;4968685;28;20215;-68
2022/12/02 06:22:22;;;;;;;15.32;10.57;;;1.90;99.90;;;;;;4967603;28;20907;-67
2022/12/02 06:24:49;;;;;;;8.30;7.53;;;1.90;99.90;;;;;;4963467;28;20303;-67
2022/12/02 06:27:18;;;;;;;7.10;6.40;;;1.90;99.90;;;;;;4971552;28;20718;-67
2022/12/02 06:29:48;;;;;;;10.48;7.13;;;1.90;99.90;;;;;;4970584;28;20359;-66
2022/12/02 06:32:20;;;;;;;10.13;9.10;;;1.90;99.90;;;;;;4952587;29;20304;-67
2022/12/02 06:34:49;;;;;;;25.35;9.35;;;1.90;99.90;;;;;;4968009;28;20667;-68
2022/12/02 06:37:21;;;;;;;7.50;7.00;;;1.90;99.90;;;;;;4968499;28;20375;-67
2022/12/02 06:39:52;;;;;;;6.80;5.57;;;1.90;99.90;;;;;;4971015;28;20574;-66
2022/12/02 06:42:23;;;;;;;17.90;4.15;;;1.90;99.90;;;;;;4955729;28;20210;-67
2022/12/02 06:45:07;;;;;;;9.77;8.80;;;2.00;99.90;;;;;;4970149;28;20608;-67
2022/12/02 06:48:02;;;;;;;9.75;8.32;;;2.00;99.90;;;;;;4971743;28;20235;-66
2022/12/02 06:50:41;;;;;;;13.73;6.03;;;2.00;99.90;;;;;;4970893;28;20663;-65
2022/12/02 06:53:28;;;;;;;9.35;7.88;;;2.00;99.90;;;;;;4968111;28;20290;-66
2022/12/02 06:56:00;;;;;;;14.68;8.10;;;1.90;99.90;;;;;;4960632;28;20225;-67
2022/12/02 06:58:30;;;;;;;6.28;5.20;;;1.90;99.90;;;;;;4969793;28;20212;-68
2022/12/02 07:01:23;;;;;;;5.60;3.72;;;2.00;99.90;;;;;;4967443;28;20212;-70
2022/12/02 07:04:26;;;;;;;16.40;7.20;;;1.90;99.90;;;;;;4957655;28;20559;-66
2022/12/02 07:06:56;;;;;;;6.80;6.10;;;1.90;99.90;;;;;;4967121;28;20772;-67
2022/12/02 07:09:32;;;;;;;22.20;6.07;;;1.90;99.90;;;;;;4959954;28;20212;-67
2022/12/02 07:11:59;;;;;;;12.30;6.65;;;1.90;99.90;;;;;;4962846;28;20196;-67
2022/12/02 07:14:36;;;;;;;10.65;9.68;;;2.00;99.90;;;;;;4962042;28;20232;-67
2022/12/02 07:17:04;;;;;;;12.57;6.53;;;2.00;99.90;;;;;;4962018;28;20248;-68
2022/12/02 07:19:38;;;;;;;10.68;5.78;;;2.00;99.90;;;;;;4952181;29;20370;-65
2022/12/02 07:22:14;;;;;;;30.48;8.60;;;2.00;99.90;;;;;;4969993;28;20232;-68
2022/12/02 07:24:43;;;;;;;19.65;10.02;;;2.00;99.90;;;;;;4961191;28;20212;-68
2022/12/02 07:27:20;;;;;;;6.05;5.47;;;2.00;99.90;;;;;;4957445;28;20234;-67
2022/12/02 07:29:48;;;;;;;9.80;6.75;;;2.00;99.90;;;;;;4974005;28;20200;-68
2022/12/02 07:32:14;;;;;;;12.57;7.72;;;2.00;99.90;;;;;;4975203;28;20200;-67
2022/12/02 07:34:41;;;;;;;11.15;5.93;;;2.00;99.90;;;;;;4974821;28;20345;-67
2022/12/02 07:37:08;;;;;;;9.82;7.10;;;2.00;99.90;;;;;;4973499;28;20232;-66
2022/12/02 07:39:34;;;;;;;19.00;8.00;;;2.00;99.90;;;;;;4971440;28;20200;-65
2022/12/02 07:42:03;;;;;;;11.38;6.72;;;2.10;99.90;;;;;;4963789;28;20263;-67
2022/12/02 07:44:29;;;;;;;18.27;7.43;;;2.00;99.90;;;;;;4973883;28;20239;-67
2022/12/02 07:46:56;;;;;;;6.95;6.40;;;2.00;99.90;;;;;;4967528;28;20228;-66
2022/12/02 07:49:23;;;;;;;13.00;6.07;;;2.00;99.90;;;;;;4966949;28;20211;-65
2022/12/02 07:51:49;;;;;;;16.15;8.93;;;2.00;99.90;;;;;;4973908;28;20749;-66
2022/12/02 07:54:16;;;;;;;8.00;5.88;;;2.10;99.90;;;;;;4973396;28;20607;-67
2022/12/02 07:56:43;;;;;;;13.85;8.60;;;2.10;99.90;;;;;;4987245;28;20255;-66
2022/12/02 07:59:11;;;;;;;8.30;5.47;;;2.10;99.90;;;;;;4994649;28;20251;-66
2022/12/02 08:01:38;;;;;;;17.45;9.13;;;2.10;99.90;;;;;;4984821;28;20201;-66
2022/12/02 08:04:04;;;;;;;8.43;7.93;;;2.10;99.90;;;;;;4980425;28;20212;-66
2022/12/02 08:06:31;;;;;;;20.20;8.82;;;2.10;99.90;;;;;;4974904;28;20221;-65
2022/12/02 08:08:58;;;;;;;6.03;3.75;;;2.00;99.90;;;;;;4971057;28;20216;-67
2022/12/02 08:11:24;;;;;;;5.53;5.13;;;2.10;99.90;;;;;;4981244;28;20224;-65
2022/12/02 08:13:51;;;;;;;11.63;6.57;;;2.10;99.90;;;;;;4968669;28;20206;-66
2022/12/02 08:16:19;;;;;;;20.83;9.13;;;2.10;99.90;;;;;;4964766;28;20228;-66
2022/12/02 08:18:46;;;;;;;7.55;6.72;;;2.10;99.90;;;;;;4977528;28;20213;-66
2022/12/02 08:21:12;;;;;;;8.75;7.25;;;2.20;99.90;;;;;;4974145;28;20274;-68
2022/12/02 08:23:39;;;;;;;14.35;8.85;;;2.20;99.90;;;;;;4970719;28;20227;-66
2022/12/02 08:26:06;;;;;;;11.02;8.18;;;2.20;99.90;;;;;;4968049;28;20236;-65
2022/12/02 08:28:32;;;;;;;13.38;6.90;;;2.20;99.90;;;;;;4954605;29;20213;-67
2022/12/02 08:30:59;;;;;;;9.88;7.70;;;2.20;99.90;;;;;;4968635;28;20220;-67
2022/12/02 08:33:27;;;;;;;15.30;10.23;;;2.10;99.90;;;;;;4977788;28;20607;-66
2022/12/02 08:35:54;;;;;;;14.05;8.00;;;2.10;99.90;;;;;;4959471;28;20237;-67
2022/12/02 08:38:21;;;;;;;4.97;4.07;;;2.20;99.90;;;;;;4972042;28;20205;-67
2022/12/02 08:40:47;;;;;;;8.07;7.18;;;2.20;99.90;;;;;;4971103;28;20201;-66
2022/12/02 08:43:14;;;;;;;12.95;6.97;;;2.20;99.90;;;;;;4960119;28;20213;-66
2022/12/02 08:45:41;;;;;;;18.92;8.88;;;2.20;99.90;;;;;;4961372;28;20231;-66
2022/12/02 08:48:07;;;;;;;16.30;8.70;;;2.20;99.90;;;;;;4973784;28;20212;-66
2022/12/02 08:50:35;;;;;;;10.02;9.02;;;2.20;99.90;;;;;;4967307;28;20225;-66
2022/12/02 08:53:02;;;;;;;18.25;8.73;;;2.20;99.90;;;;;;4963620;28;20616;-68
2022/12/02 08:55:29;;;;;;;6.57;5.35;;;2.30;99.90;;;;;;4968423;28;20209;-66
2022/12/02 08:57:56;;;;;;;15.40;10.27;;;2.30;99.90;;;;;;4967962;28;20209;-65
2022/12/02 09:00:23;;;;;;;7.50;5.38;;;2.30;99.90;;;;;;4971639;28;20223;-66
2022/12/02 09:02:50;;;;;;;9.60;8.65;;;2.30;99.90;;;;;;4971441;28;20216;-66
2022/12/02 09:05:17;;;;;;;8.75;6.53;;;2.30;99.90;;;;;;4972364;28;20694;-65
2022/12/02 09:07:45;;;;;;;17.02;9.80;;;2.40;99.90;;;;;;4954113;29;20213;-65
2022/12/02 09:10:13;;;;;;;5.53;4.32;;;2.40;99.90;;;;;;4965977;28;20205;-66
2022/12/02 09:12:40;;;;;;;14.20;7.47;;;2.40;99.90;;;;;;4972812;28;20255;-65
2022/12/02 09:15:08;;;;;;;6.82;3.42;;;2.40;99.90;;;;;;4970792;28;20213;-65
2022/12/02 09:17:34;;;;;;;12.38;6.97;;;2.40;99.90;;;;;;4965753;28;20288;-65
2022/12/02 09:20:02;;;;;;;10.57;7.57;;;2.40;99.90;;;;;;4963046;28;20205;-65
2022/12/02 09:22:28;;;;;;;10.98;3.78;;;2.50;99.90;;;;;;4972310;28;20231;-65
2022/12/02 09:24:56;;;;;;;22.10;9.63;;;2.50;99.90;;;;;;4964963;28;20204;-65
2022/12/02 09:27:23;;;;;;;6.45;3.83;;;2.60;99.90;;;;;;4972738;28;20605;-65
2022/12/02 09:29:50;;;;;;;10.10;9.10;;;2.60;99.90;;;;;;4970475;28;20614;-66
2022/12/02 09:32:16;;;;;;;9.32;7.22;;;2.60;99.90;;;;;;4965137;28;20251;-65
2022/12/02 09:34:43;;;;;;;8.52;7.72;;;2.60;99.90;;;;;;4974230;28;20646;-66
2022/12/02 09:37:10;;;;;;;15.38;5.28;;;2.60;99.90;;;;;;4968551;28;20228;-65
2022/12/02 09:39:36;;;;;;;12.82;7.95;;;2.70;99.90;;;;;;4970876;28;20197;-66
2022/12/02 09:42:05;;;;;;;5.97;5.45;;;2.70;99.90;;;;;;4970441;28;20208;-66
2022/12/02 09:44:31;;;;;;;11.15;6.18;;;2.70;99.90;;;;;;4971159;28;20212;-66
2022/12/02 09:46:59;;;;;;;17.48;6.57;;;2.70;99.90;;;;;;4971005;28;20609;-66
2022/12/02 09:49:25;;;;;;;6.55;4.40;;;2.70;99.90;;;;;;4984009;28;20260;-66
2022/12/02 09:51:56;;;;;;;9.45;8.55;;;2.70;99.90;;;;;;4959714;28;20625;-66
2022/12/02 09:54:23;;;;;;;13.02;8.63;;;2.70;99.90;;;;;;4965857;28;20200;-65
2022/12/02 09:56:50;;;;;;;11.90;6.47;;;2.70;99.90;;;;;;4971721;28;20228;-65
2022/12/02 09:59:18;;;;;;;7.70;6.10;;;2.70;99.90;;;;;;4963683;28;20209;-66
2022/12/02 10:01:49;;;;;;;17.83;6.68;;;2.80;99.90;;;;;;4974442;28;20201;-66
2022/12/02 10:04:18;;;;;;;12.05;7.55;;;2.80;99.90;;;;;;4992041;28;20212;-65
2022/12/02 10:06:45;;;;;;;16.05;8.73;;;2.80;99.90;;;;;;4970413;28;20224;-66
2022/12/02 10:09:15;;;;;;;10.73;6.13;;;2.70;99.90;;;;;;4973889;28;20208;-66
2022/12/02 10:11:42;;;;;;;11.30;7.55;;;2.70;99.90;;;;;;4967136;28;20228;-65
2022/12/02 10:14:11;;;;;;;14.25;5.57;;;2.70;99.90;;;;;;4971295;28;20212;-65
2022/12/02 10:16:39;;;;;;;8.77;7.07;;;2.70;99.90;;;;;;4968003;28;20240;-65
2022/12/02 10:19:07;;;;;;;27.38;5.78;;;2.70;99.90;;;;;;4963093;28;20208;-65
2022/12/02 10:21:34;;;;;;;9.13;8.27;;;2.70;99.90;;;;;;4967065;28;20209;-67
2022/12/02 10:24:02;;;;;;;13.15;5.95;;;2.70;99.90;;;;;;4960813;28;20208;-66
2022/12/02 10:26:43;;;;;;;22.90;7.43;;;2.70;99.90;;;;;;4971675;28;20715;-65
2022/12/02 10:29:15;;;;;;;11.25;9.10;;;2.70;99.90;;;;;;4967295;28;20208;-67
2022/12/02 10:31:53;;;;;;;23.67;10.73;;;2.70;99.90;;;;;;4966165;28;20571;-66
2022/12/02 10:34:21;;;;;;;8.57;5.95;;;2.70;99.90;;;;;;4967141;28;20296;-66
2022/12/02 10:36:48;;;;;;;8.30;7.53;;;2.70;99.90;;;;;;4968100;28;20228;-67
2022/12/02 10:39:21;;;;;;;7.20;6.65;;;2.70;99.90;;;;;;4968027;28;20219;-66
2022/12/02 10:41:48;;;;;;;9.50;8.73;;;2.70;99.90;;;;;;4977432;28;20205;-67
2022/12/02 10:44:16;;;;;;;5.78;4.85;;;2.70;99.90;;;;;;4960181;28;20212;-66
2022/12/02 10:46:44;;;;;;;16.88;10.07;;;2.70;99.90;;;;;;4970427;28;20228;-66
2022/12/02 10:49:31;;;;;;;15.00;8.90;;;2.70;99.90;;;;;;4968790;28;20205;-65
2022/12/02 10:52:02;;;;;;;8.77;6.88;;;2.70;99.90;;;;;;4965252;28;20220;-67
2022/12/02 10:54:32;;;;;;;18.13;8.50;;;2.70;99.90;;;;;;4966989;28;20197;-65
2022/12/02 10:57:00;;;;;;;14.25;8.40;;;2.80;99.90;;;;;;4970723;28;20235;-67
2022/12/02 10:59:27;;;;;;;8.48;6.25;;;2.80;99.90;;;;;;4968479;28;20216;-66
2022/12/02 11:01:54;;;;;;;30.98;10.02;;;2.80;99.90;;;;;;4970945;28;20686;-66
2022/12/02 11:04:21;;;;;;;6.95;5.57;;;2.80;99.90;;;;;;4969158;28;20208;-66
2022/12/02 11:06:49;;;;;;;18.40;8.23;;;2.80;99.90;;;;;;4965692;28;20225;-66
2022/12/02 11:09:18;;;;;;;15.50;6.95;;;2.80;99.90;;;;;;4968952;28;20308;-66
2022/12/02 11:11:46;;;;;;;16.30;8.52;;;2.80;99.90;;;;;;4963675;28;20238;-65
2022/12/02 11:14:14;;;;;;;17.70;9.50;;;2.80;99.90;;;;;;4971106;28;20578;-66
2022/12/02 11:17:07;;;;;;;7.00;6.30;;;2.80;99.90;;;;;;4968383;28;20243;-66
2022/12/02 11:19:46;;;;;;;14.82;7.90;;;2.90;99.90;;;;;;4964381;28;20193;-65
2022/12/02 11:22:48;;;;;;;8.60;7.78;;;2.90;99.90;;;;;;4963638;28;20304;-65
2022/12/02 11:26:07;;;;;;;10.15;5.13;;;2.80;99.90;;;;;;4964373;28;20236;-65
2022/12/02 11:29:04;;;;;;;13.73;8.07;;;2.80;99.90;;;;;;4955693;28;20221;-65
2022/12/02 11:31:31;;;;;;;11.45;8.43;;;2.80;99.90;;;;;;4960620;28;20316;-67
2022/12/02 11:34:23;;;;;;;15.85;5.90;;;2.80;99.90;;;;;;4969224;28;20216;-68
2022/12/02 11:37:23;;;;;;;12.63;7.60;;;2.90;99.90;;;;;;4970117;28;20229;-67
2022/12/02 11:39:51;;;;;;;9.38;7.07;;;2.90;99.90;;;;;;4970133;28;20204;-67
2022/12/02 11:42:23;;;;;;;19.63;9.05;;;2.80;99.90;;;;;;4969527;28;20217;-67
2022/12/02 11:44:50;;;;;;;17.90;6.15;;;2.80;99.90;;;;;;4954008;28;20220;-68
2022/12/02 11:47:31;;;;;;;19.92;6.07;;;2.80;99.90;;;;;;4966740;28;20897;-69
2022/12/02 11:50:19;;;;;;;7.57;4.05;;;2.80;99.90;;;;;;4969561;28;20205;-67
2022/12/02 11:52:50;;;;;;;5.90;5.50;;;2.80;99.90;;;;;;4970572;28;20271;-66
2022/12/02 11:55:22;;;;;;;5.25;4.32;;;2.80;99.90;;;;;;4970930;28;20205;-67
2022/12/02 11:57:50;;;;;;;15.57;8.35;;;2.80;99.90;;;;;;4968749;28;20208;-67
2022/12/02 12:00:27;;;;;;;8.18;5.90;;;2.80;99.90;;;;;;4968584;28;20343;-67
2022/12/02 12:03:14;;;;;;;21.00;9.98;;;2.80;99.90;;;;;;4952174;29;20217;-66
2022/12/02 12:05:41;;;;;;;8.85;6.40;;;2.80;99.90;;;;;;4962594;28;20228;-67
2022/12/02 12:08:09;;;;;;;9.93;5.15;;;2.80;99.90;;;;;;4953269;28;20669;-67
2022/12/02 12:10:39;;;;;;;17.45;8.02;;;2.90;99.90;;;;;;4955080;28;20216;-68
2022/12/02 12:13:21;;;;;;;7.50;4.75;;;2.80;99.90;;;;;;4964632;28;20225;-68
2022/12/02 12:15:49;;;;;;;8.57;4.78;;;2.80;99.90;;;;;;4974849;28;20668;-68
2022/12/02 12:18:34;;;;;;;8.68;6.53;;;2.80;99.90;;;;;;4978849;28;20232;-67
2022/12/02 12:21:01;;;;;;;12.18;6.82;;;2.80;99.90;;;;;;4964835;28;20219;-68
2022/12/02 12:23:33;;;;;;;5.35;2.90;;;2.80;99.90;;;;;;4961554;28;20205;-68
2022/12/02 12:26:02;;;;;;;14.70;6.85;;;2.80;99.90;;;;;;4954490;29;20233;-68
2022/12/02 12:28:30;;;;;;;20.90;7.00;;;2.80;99.90;;;;;;4956269;28;20264;-67
2022/12/02 12:30:58;;;;;;;13.07;5.97;;;2.80;99.90;;;;;;4973735;28;20275;-67
2022/12/02 12:33:25;;;;;;;9.40;6.07;;;2.80;99.90;;;;;;4972243;28;20275;-68
2022/12/02 12:35:53;;;;;;;7.13;4.20;;;2.80;99.90;;;;;;4974108;28;20225;-68
2022/12/02 12:38:19;;;;;;;9.02;8.02;;;2.80;99.90;;;;;;4967867;28;20205;-68
2022/12/02 12:40:46;;;;;;;14.55;9.93;;;2.80;99.90;;;;;;4973976;28;20209;-68
2022/12/02 12:43:14;;;;;;;6.88;4.95;;;2.80;99.90;;;;;;4972190;28;20528;-65
2022/12/02 12:45:41;;;;;;;6.00;4.35;;;2.80;99.90;;;;;;4973290;28;20587;-67
2022/12/02 12:48:07;;;;;;;8.02;5.65;;;2.80;99.90;;;;;;4970771;28;20212;-67
2022/12/02 12:50:34;;;;;;;8.15;5.13;;;2.80;99.90;;;;;;4965722;28;20623;-68
2022/12/02 12:53:01;;;;;;;15.88;5.93;;;2.90;99.90;;;;;;4966087;28;20240;-66
2022/12/02 12:55:27;;;;;;;8.82;4.25;;;2.90;99.90;;;;;;4973203;28;20209;-67
2022/12/02 12:57:54;;;;;;;17.35;8.63;;;2.90;99.90;;;;;;4972648;28;20221;-67
2022/12/02 13:00:22;;;;;;;7.88;6.45;;;2.90;99.90;;;;;;4972470;28;20228;-69
2022/12/02 13:02:49;;;;;;;7.20;3.60;;;2.80;99.90;;;;;;4970555;28;20200;-69
2022/12/02 13:05:16;;;;;;;21.05;7.15;;;2.90;99.90;;;;;;4983954;28;20224;-69
2022/12/02 13:07:43;;;;;;;13.98;6.50;;;2.90;99.90;;;;;;4970889;28;20213;-68
2022/12/02 13:10:10;;;;;;;5.03;4.57;;;2.90;99.90;;;;;;4965366;28;20251;-68
2022/12/02 13:12:37;;;;;;;9.95;6.07;;;2.90;99.90;;;;;;4972315;28;20217;-69
2022/12/02 13:15:04;;;;;;;20.65;7.70;;;2.90;99.90;;;;;;4971491;28;20584;-68
2022/12/02 13:17:32;;;;;;;10.10;5.85;;;2.90;99.90;;;;;;4971280;28;20243;-68
2022/12/02 13:19:59;;;;;;;7.53;6.80;;;2.90;99.90;;;;;;4972601;28;20746;-68
2022/12/02 13:22:26;;;;;;;17.10;8.93;;;2.90;99.90;;;;;;4964673;28;20229;-66
2022/12/02 13:24:52;;;;;;;5.63;5.25;;;2.90;99.90;;;;;;4972440;28;20205;-67
2022/12/02 13:27:19;;;;;;;10.00;7.10;;;2.80;99.90;;;;;;4971984;28;20232;-67
2022/12/02 13:29:46;;;;;;;9.15;7.00;;;2.80;99.90;;;;;;4966579;28;20209;-68
2022/12/02 13:32:12;;;;;;;6.85;4.50;;;2.80;99.90;;;;;;4963399;28;20274;-68
2022/12/02 13:34:40;;;;;;;11.15;6.40;;;2.80;99.90;;;;;;4972900;28;20259;-68
2022/12/02 13:37:07;;;;;;;8.60;6.25;;;2.80;99.90;;;;;;4971813;28;20291;-68
2022/12/02 13:39:34;;;;;;;6.13;5.50;;;2.80;99.90;;;;;;4968103;28;20209;-68
2022/12/02 13:42:00;;;;;;;11.85;8.32;;;2.80;99.90;;;;;;4958870;28;20661;-67
2022/12/02 13:44:27;;;;;;;16.30;7.78;;;2.80;99.90;;;;;;4960429;28;20713;-68
2022/12/02 13:46:54;;;;;;;11.73;7.30;;;2.80;99.90;;;;;;4961531;28;20224;-68
2022/12/02 13:49:20;;;;;;;10.80;5.53;;;2.80;99.90;;;;;;4972738;28;20212;-67
2022/12/02 13:51:48;;;;;;;9.10;5.50;;;2.80;99.90;;;;;;4972937;28;20208;-67
2022/12/02 13:54:15;;;;;;;15.48;5.38;;;2.80;99.90;;;;;;4960225;28;20272;-68
2022/12/02 13:56:42;;;;;;;18.38;7.70;;;2.80;99.90;;;;;;4953496;29;20236;-68
2022/12/02 13:59:08;;;;;;;14.25;4.93;;;2.90;99.90;;;;;;4964142;28;20205;-68
2022/12/02 14:01:35;;;;;;;15.27;5.72;;;2.90;99.90;;;;;;4972917;28;20216;-68
2022/12/02 14:04:02;;;;;;;3.60;3.50;;;2.90;99.90;;;;;;4973314;28;20216;-70
2022/12/02 14:06:28;;;;;;;3.70;3.47;;;2.90;99.90;;;;;;4972980;28;20937;-69
2022/12/02 14:08:56;;;;;;;9.77;5.30;;;2.90;99.90;;;;;;4964552;28;20247;-68
2022/12/02 14:11:23;;;;;;;12.85;6.50;;;2.90;99.90;;;;;;4962291;28;20351;-67
2022/12/02 14:13:50;;;;;;;5.00;4.70;;;2.90;99.90;;;;;;4972234;28;20228;-67
2022/12/02 14:16:16;;;;;;;5.20;4.90;;;2.90;99.90;;;;;;4972845;28;20319;-68
2022/12/02 14:18:43;;;;;;;11.80;6.88;;;2.90;99.90;;;;;;4972486;28;20205;-67
2022/12/02 14:21:10;;;;;;;5.53;5.15;;;2.90;99.90;;;;;;4971079;28;20308;-69
2022/12/02 14:23:36;;;;;;;14.00;5.20;;;2.90;99.90;;;;;;4967434;28;20204;-68
2022/12/02 14:26:05;;;;;;;8.88;6.68;;;2.90;99.90;;;;;;4972031;28;20224;-67
2022/12/02 14:28:32;;;;;;;7.00;5.10;;;2.90;99.90;;;;;;4972520;28;20205;-67
2022/12/02 14:30:58;;;;;;;5.03;3.60;;;2.90;99.90;;;;;;4973488;28;20607;-68
2022/12/02 14:33:25;;;;;;;18.35;8.73;;;2.90;99.90;;;;;;4972841;28;20233;-67
2022/12/02 14:35:52;;;;;;;7.43;5.20;;;2.90;99.90;;;;;;4971306;28;20237;-67
2022/12/02 14:38:19;;;;;;;2.63;2.60;;;2.80;99.90;;;;;;4965079;28;20652;-67
2022/12/02 14:40:45;;;;;;;6.28;4.63;;;2.80;99.90;;;;;;4974699;28;20275;-68
2022/12/02 14:43:13;;;;;;;13.30;5.45;;;2.80;99.90;;;;;;4963839;28;20208;-67
2022/12/02 14:45:40;;;;;;;11.88;4.43;;;2.80;99.90;;;;;;4972926;28;20248;-67
2022/12/02 14:48:07;;;;;;;10.00;9.10;;;2.80;99.90;;;;;;4962535;28;20220;-68
2022/12/02 14:50:33;;;;;;;11.98;8.07;;;2.80;99.90;;;;;;4965049;28;20227;-67
2022/12/02 14:53:00;;;;;;;6.50;6.07;;;2.80;99.90;;;;;;4955762;28;20225;-67
2022/12/02 14:55:27;;;;;;;4.25;3.20;;;2.80;99.90;;;;;;4952901;29;20209;-68
2022/12/02 14:57:54;;;;;;;4.25;3.22;;;2.80;99.90;;;;;;4952260;29;20220;-66
2022/12/02 15:00:24;;;;;;;11.25;4.78;;;2.80;99.90;;;;;;4954783;28;20545;-67
2022/12/02 15:02:51;;;;;;;11.60;6.20;;;2.80;99.90;;;;;;4972242;28;20622;-67
2022/12/02 15:05:19;;;;;;;5.75;4.57;;;2.80;99.90;;;;;;4972436;28;20522;-67
2022/12/02 15:07:46;;;;;;;5.88;5.07;;;2.80;99.90;;;;;;4971083;28;20696;-68
2022/12/02 15:10:14;;;;;;;5.07;2.78;;;2.80;99.90;;;;;;4962579;28;20217;-67
2022/12/02 15:12:41;;;;;;;6.45;3.03;;;2.80;99.90;;;;;;4952219;29;20572;-69
2022/12/02 15:15:09;;;;;;;13.45;7.00;;;2.70;99.90;;;;;;4954962;28;20209;-68
2022/12/02 15:17:38;;;;;;;7.65;6.95;;;2.70;99.90;;;;;;4972155;28;20228;-68
2022/12/02 15:20:06;;;;;;;7.47;6.03;;;2.70;99.90;;;;;;4970524;28;20313;-67
2022/12/02 15:22:32;;;;;;;3.45;3.05;;;2.70;99.90;;;;;;4969092;28;20204;-67
2022/12/02 15:24:59;;;;;;;7.40;6.30;;;2.70;99.90;;;;;;4975714;28;20208;-67
2022/12/02 15:27:26;;;;;;;9.90;5.47;;;2.70;99.90;;;;;;4977425;28;20239;-69
2022/12/02 15:29:52;;;;;;;4.15;3.95;;;2.70;99.90;;;;;;4977606;28;20679;-67
2022/12/02 15:32:19;;;;;;;5.75;4.97;;;2.70;99.90;;;;;;4970215;28;20224;-70
2022/12/02 15:34:47;;;;;;;5.05;4.60;;;2.70;99.90;;;;;;4982528;28;20204;-69
2022/12/02 15:37:14;;;;;;;20.50;5.32;;;2.70;99.90;;;;;;4982396;28;20229;-69
2022/12/02 15:39:40;;;;;;;9.68;3.90;;;2.80;99.90;;;;;;4985866;28;20221;-68
2022/12/02 15:42:07;;;;;;;8.02;4.53;;;2.70;99.90;;;;;;4977517;28;20213;-67
2022/12/02 15:44:34;;;;;;;17.17;6.63;;;2.70;99.90;;;;;;4970457;28;20641;-70
2022/12/02 15:47:00;;;;;;;8.85;4.50;;;2.70;99.90;;;;;;4974158;28;20715;-70
2022/12/02 15:49:27;;;;;;;9.38;6.35;;;2.70;99.90;;;;;;4975701;28;20279;-69
2022/12/02 15:51:55;;;;;;;2.35;2.20;;;2.80;99.90;;;;;;4981132;28;20209;-68
2022/12/02 15:54:22;;;;;;;9.13;8.15;;;2.80;99.90;;;;;;4979206;28;20346;-68
2022/12/02 15:56:48;;;;;;;10.10;4.78;;;2.70;99.90;;;;;;4980581;28;20279;-68
2022/12/02 15:59:16;;;;;;;4.43;3.92;;;2.70;99.90;;;;;;4976747;28;20216;-69
2022/12/02 16:01:42;;;;;;;7.22;6.55;;;2.70;99.90;;;;;;4977741;28;20258;-69
2022/12/02 16:04:09;;;;;;;6.53;3.85;;;2.70;99.90;;;;;;4976944;28;20224;-69
2022/12/02 16:06:36;;;;;;;3.88;3.28;;;2.70;99.90;;;;;;4972483;28;20233;-67
2022/12/02 16:09:04;;;;;;;7.88;6.38;;;2.70;99.90;;;;;;4969429;28;20212;-69
2022/12/02 16:11:30;;;;;;;13.35;6.43;;;2.70;99.90;;;;;;4976866;28;20212;-68
2022/12/02 16:13:57;;;;;;;4.10;3.50;;;2.80;99.90;;;;;;4967080;28;20229;-67
2022/12/02 16:16:24;;;;;;;9.15;4.68;;;2.80;99.90;;;;;;4976227;28;20233;-69
2022/12/02 16:18:51;;;;;;;11.45;5.10;;;2.80;99.90;;;;;;4975891;28;20213;-69
2022/12/02 16:21:18;;;;;;;4.30;3.97;;;2.80;99.90;;;;;;4974925;28;20197;-70
2022/12/02 16:23:45;;;;;;;8.60;5.78;;;2.80;99.90;;;;;;4973052;28;20288;-69
2022/12/02 16:26:13;;;;;;;8.93;5.22;;;2.80;99.90;;;;;;4969279;28;20279;-70
2022/12/02 16:28:41;;;;;;;9.73;6.53;;;2.80;99.90;;;;;;4962430;28;20212;-69
2022/12/02 16:31:08;;;;;;;11.63;7.25;;;2.80;99.90;;;;;;4974426;28;20745;-68
2022/12/02 16:33:35;;;;;;;7.45;4.32;;;2.80;99.90;;;;;;4963467;28;20241;-68
2022/12/02 16:36:01;;;;;;;5.97;5.35;;;2.80;99.90;;;;;;4975872;28;20240;-70
2022/12/02 16:38:28;;;;;;;6.63;5.47;;;2.80;99.90;;;;;;4967389;28;20202;-69
2022/12/02 16:40:55;;;;;;;15.55;5.28;;;2.80;99.90;;;;;;4955826;28;20671;-68
2022/12/02 16:43:23;;;;;;;7.97;4.85;;;2.80;99.90;;;;;;4960058;28;20205;-69
2022/12/02 16:45:50;;;;;;;10.10;5.38;;;2.80;99.90;;;;;;4963647;28;20229;-69
2022/12/02 16:48:16;;;;;;;16.80;5.40;;;2.80;99.90;;;;;;4963265;28;20201;-69
2022/12/02 16:50:43;;;;;;;4.57;4.07;;;2.80;99.90;;;;;;4961394;28;20272;-69
2022/12/02 16:53:10;;;;;;;5.80;5.32;;;2.80;99.90;;;;;;4969668;28;20228;-69
2022/12/02 16:55:36;;;;;;;4.90;4.50;;;2.80;99.90;;;;;;4974631;28;20237;-70
2022/12/02 16:58:03;;;;;;;6.45;5.93;;;2.80;99.90;;;;;;4957527;28;20227;-68
2022/12/02 17:00:31;;;;;;;6.80;3.83;;;2.80;99.90;;;;;;4962603;28;20213;-69
2022/12/02 17:02:58;;;;;;;5.68;4.97;;;2.80;99.90;;;;;;4967807;28;20652;-69
2022/12/02 17:05:24;;;;;;;6.05;5.50;;;2.80;99.90;;;;;;4966233;28;20211;-70
2022/12/02 17:07:51;;;;;;;11.50;7.10;;;2.80;99.90;;;;;;4967496;28;20216;-68
2022/12/02 17:10:18;;;;;;;18.70;4.95;;;2.80;99.90;;;;;;4967537;28;20205;-70
2022/12/02 17:12:45;;;;;;;8.38;4.18;;;2.80;99.90;;;;;;4961798;28;20297;-70
2022/12/02 17:15:12;;;;;;;8.63;4.43;;;2.80;99.90;;;;;;4973248;28;20694;-69
2022/12/02 17:17:40;;;;;;;9.23;4.70;;;2.70;99.90;;;;;;4973578;28;20727;-70
2022/12/02 17:20:08;;;;;;;6.68;3.95;;;2.70;99.90;;;;;;4973780;28;20200;-70
2022/12/02 17:22:35;;;;;;;6.72;6.22;;;2.70;99.90;;;;;;4972311;28;20212;-69
2022/12/02 17:25:02;;;;;;;5.72;5.22;;;2.60;99.90;;;;;;4991244;23;20591;31
2022/12/02 17:27:28;;;;;;;9.43;5.63;;;2.60;99.90;;;;;;4945457;29;20225;-69
2022/12/02 17:29:55;;;;;;;10.77;4.30;;;2.60;99.90;;;;;;4952277;29;20657;-69
2022/12/02 17:32:22;;;;;;;5.55;5.13;;;2.60;99.90;;;;;;4954132;28;20683;-69
2022/12/02 17:34:50;;;;;;;6.68;5.50;;;2.60;99.90;;;;;;4953136;29;20694;-70
2022/12/02 17:37:16;;;;;;;5.95;4.90;;;2.60;99.90;;;;;;4947321;29;20927;-70
2022/12/02 17:39:43;;;;;;;13.32;5.57;;;2.60;99.90;;;;;;4956087;29;20216;-70
2022/12/02 17:42:10;;;;;;;8.27;6.63;;;2.50;99.90;;;;;;4945854;29;20225;-70
2022/12/02 17:44:36;;;;;;;7.93;4.88;;;2.50;99.90;;;;;;4953589;29;20205;-70
2022/12/02 17:47:04;;;;;;;7.43;3.17;;;2.50;99.90;;;;;;4955563;28;20608;-70
2022/12/02 17:49:30;;;;;;;6.25;5.10;;;2.50;99.90;;;;;;4955380;29;20202;-70
2022/12/02 17:51:58;;;;;;;6.75;6.18;;;2.40;99.90;;;;;;4939865;29;20210;-71
2022/12/02 17:54:25;;;;;;;2.53;2.42;;;2.40;99.90;;;;;;4950498;29;20236;-70
2022/12/02 17:56:51;;;;;;;5.53;3.53;;;2.40;99.90;;;;;;4954400;29;20251;-70
2022/12/02 17:59:18;;;;;;;8.35;4.55;;;2.40;99.90;;;;;;4955278;29;20265;-70
2022/12/02 18:01:45;;;;;;;8.57;7.55;;;2.40;99.90;;;;;;4954647;29;20205;-70
2022/12/02 18:04:11;;;;;;;3.35;3.25;;;2.40;99.90;;;;;;4953443;29;20422;-70